sensor_id;sensor_type;location;lat;lon;timestamp;P1;durP1;ratioP1;P2;durP2;ratioP2
12567;SDS011;6349;50.904;6.136;2023-04-01T00:00:36;1.47;;;0.80;;
12567;SDS011;6349;50.904;6.136;2023-04-01T00:02:38;2.80;;;0.83;;
12567;SDS011;6349;50.904;6.136;2023-04-01T00:04:39;1.87;;;0.80;;
12567;SDS011;6349;50.904;6.136;2023-04-01T00:06:40;1.97;;;0.67;;
12567;SDS011;6349;50.904;6.136;2023-04-01T00:08:40;1.97;;;0.80;;
12567;SDS011;6349;50.904;6.136;2023-04-01T00:10:43;1.00;;;0.70;;
12567;SDS011;6349;50.904;6.136;2023-04-01T00:12:46;1.87;;;0.70;;
12567;SDS011;6349;50.904;6.136;2023-04-01T00:14:47;2.57;;;0.90;;
12567;SDS011;6349;50.904;6.136;2023-04-01T00:16:49;3.97;;;0.90;;
12567;SDS011;6349;50.904;6.136;2023-04-01T00:18:53;2.23;;;0.90;;
12567;SDS011;6349;50.904;6.136;2023-04-01T00:20:55;1.83;;;0.70;;
12567;SDS011;6349;50.904;6.136;2023-04-01T00:22:56;2.83;;;1.00;;
12567;SDS011;6349;50.904;6.136;2023-04-01T00:24:58;2.70;;;0.73;;
12567;SDS011;6349;50.904;6.136;2023-04-01T00:26:59;2.07;;;0.60;;
12567;SDS011;6349;50.904;6.136;2023-04-01T00:28:59;2.17;;;0.83;;
12567;SDS011;6349;50.904;6.136;2023-04-01T00:31:06;2.40;;;0.93;;
12567;SDS011;6349;50.904;6.136;2023-04-01T00:33:09;3.03;;;0.90;;
12567;SDS011;6349;50.904;6.136;2023-04-01T00:35:11;1.07;;;0.60;;
12567;SDS011;6349;50.904;6.136;2023-04-01T00:37:13;1.57;;;0.50;;
12567;SDS011;6349;50.904;6.136;2023-04-01T00:39:16;2.53;;;1.27;;
12567;SDS011;6349;50.904;6.136;2023-04-01T00:41:17;2.67;;;0.70;;
12567;SDS011;6349;50.904;6.136;2023-04-01T00:43:19;2.07;;;0.90;;
12567;SDS011;6349;50.904;6.136;2023-04-01T00:45:31;0.80;;;0.60;;
12567;SDS011;6349;50.904;6.136;2023-04-01T00:47:39;1.77;;;0.77;;
12567;SDS011;6349;50.904;6.136;2023-04-01T00:49:42;0.93;;;0.70;;
12567;SDS011;6349;50.904;6.136;2023-04-01T00:51:48;1.53;;;0.77;;
12567;SDS011;6349;50.904;6.136;2023-04-01T00:53:53;1.63;;;0.73;;
12567;SDS011;6349;50.904;6.136;2023-04-01T00:58:14;2.20;;;0.90;;
12567;SDS011;6349;50.904;6.136;2023-04-01T01:00:17;1.80;;;0.70;;
12567;SDS011;6349;50.904;6.136;2023-04-01T01:02:20;2.00;;;0.70;;
12567;SDS011;6349;50.904;6.136;2023-04-01T01:04:26;0.67;;;0.40;;
12567;SDS011;6349;50.904;6.136;2023-04-01T01:09:08;1.43;;;0.60;;
12567;SDS011;6349;50.904;6.136;2023-04-01T01:11:40;1.97;;;0.90;;
12567;SDS011;6349;50.904;6.136;2023-04-01T01:14:04;2.53;;;0.60;;
12567;SDS011;6349;50.904;6.136;2023-04-01T01:31:20;0.70;;;0.50;;
12567;SDS011;6349;50.904;6.136;2023-04-01T01:35:49;1.97;;;0.50;;
12567;SDS011;6349;50.904;6.136;2023-04-01T01:37:56;1.80;;;0.50;;
12567;SDS011;6349;50.904;6.136;2023-04-01T01:40:07;1.23;;;0.70;;
12567;SDS011;6349;50.904;6.136;2023-04-01T01:42:13;1.07;;;0.50;;
12567;SDS011;6349;50.904;6.136;2023-04-01T01:44:18;0.77;;;0.70;;
12567;SDS011;6349;50.904;6.136;2023-04-01T01:46:23;0.70;;;0.30;;
12567;SDS011;6349;50.904;6.136;2023-04-01T01:48:26;0.83;;;0.30;;
12567;SDS011;6349;50.904;6.136;2023-04-01T01:50:29;1.00;;;0.50;;
12567;SDS011;6349;50.904;6.136;2023-04-01T01:52:33;3.13;;;0.83;;
12567;SDS011;6349;50.904;6.136;2023-04-01T01:54:35;1.50;;;0.60;;
12567;SDS011;6349;50.904;6.136;2023-04-01T01:56:35;0.67;;;0.40;;
12567;SDS011;6349;50.904;6.136;2023-04-01T01:58:39;0.40;;;0.40;;
12567;SDS011;6349;50.904;6.136;2023-04-01T02:00:47;0.30;;;0.27;;
12567;SDS011;6349;50.904;6.136;2023-04-01T02:02:52;1.47;;;0.33;;
12567;SDS011;6349;50.904;6.136;2023-04-01T02:04:54;0.63;;;0.50;;
12567;SDS011;6349;50.904;6.136;2023-04-01T02:06:56;0.80;;;0.50;;
12567;SDS011;6349;50.904;6.136;2023-04-01T02:09:09;0.63;;;0.43;;
12567;SDS011;6349;50.904;6.136;2023-04-01T02:11:16;0.63;;;0.47;;
12567;SDS011;6349;50.904;6.136;2023-04-01T02:13:29;0.30;;;0.30;;
12567;SDS011;6349;50.904;6.136;2023-04-01T02:15:37;0.80;;;0.30;;
12567;SDS011;6349;50.904;6.136;2023-04-01T02:17:44;1.13;;;0.50;;
12567;SDS011;6349;50.904;6.136;2023-04-01T02:21:52;1.07;;;0.23;;
12567;SDS011;6349;50.904;6.136;2023-04-01T02:23:58;0.30;;;0.30;;
12567;SDS011;6349;50.904;6.136;2023-04-01T02:26:02;0.63;;;0.30;;
12567;SDS011;6349;50.904;6.136;2023-04-01T02:28:06;1.10;;;0.43;;
12567;SDS011;6349;50.904;6.136;2023-04-01T02:30:10;0.50;;;0.20;;
12567;SDS011;6349;50.904;6.136;2023-04-01T02:32:13;0.43;;;0.30;;
12567;SDS011;6349;50.904;6.136;2023-04-01T02:34:17;0.57;;;0.30;;
12567;SDS011;6349;50.904;6.136;2023-04-01T02:36:22;1.60;;;0.70;;
12567;SDS011;6349;50.904;6.136;2023-04-01T02:38:24;2.63;;;0.33;;
12567;SDS011;6349;50.904;6.136;2023-04-01T02:40:25;0.80;;;0.33;;
12567;SDS011;6349;50.904;6.136;2023-04-01T02:42:25;0.77;;;0.40;;
12567;SDS011;6349;50.904;6.136;2023-04-01T02:44:27;1.43;;;0.40;;
12567;SDS011;6349;50.904;6.136;2023-04-01T02:46:29;0.73;;;0.43;;
12567;SDS011;6349;50.904;6.136;2023-04-01T02:48:31;0.57;;;0.30;;
12567;SDS011;6349;50.904;6.136;2023-04-01T02:50:33;0.57;;;0.47;;
12567;SDS011;6349;50.904;6.136;2023-04-01T02:52:35;0.80;;;0.37;;
12567;SDS011;6349;50.904;6.136;2023-04-01T02:54:38;1.00;;;0.50;;
12567;SDS011;6349;50.904;6.136;2023-04-01T02:56:40;0.30;;;0.20;;
12567;SDS011;6349;50.904;6.136;2023-04-01T02:58:42;1.50;;;0.40;;
12567;SDS011;6349;50.904;6.136;2023-04-01T03:00:44;1.27;;;0.43;;
12567;SDS011;6349;50.904;6.136;2023-04-01T03:02:46;1.57;;;0.30;;
12567;SDS011;6349;50.904;6.136;2023-04-01T03:04:48;1.60;;;0.30;;
12567;SDS011;6349;50.904;6.136;2023-04-01T03:06:50;0.40;;;0.30;;
12567;SDS011;6349;50.904;6.136;2023-04-01T03:08:52;0.43;;;0.40;;
12567;SDS011;6349;50.904;6.136;2023-04-01T03:10:54;0.30;;;0.27;;
12567;SDS011;6349;50.904;6.136;2023-04-01T03:12:55;1.37;;;0.60;;
12567;SDS011;6349;50.904;6.136;2023-04-01T03:14:57;0.60;;;0.20;;
12567;SDS011;6349;50.904;6.136;2023-04-01T03:16:58;0.77;;;0.30;;
12567;SDS011;6349;50.904;6.136;2023-04-01T03:19:00;0.33;;;0.30;;
12567;SDS011;6349;50.904;6.136;2023-04-01T03:23:19;0.60;;;0.30;;
12567;SDS011;6349;50.904;6.136;2023-04-01T03:25:22;0.80;;;0.57;;
12567;SDS011;6349;50.904;6.136;2023-04-01T03:27:23;1.13;;;0.50;;
12567;SDS011;6349;50.904;6.136;2023-04-01T03:29:25;0.57;;;0.40;;
12567;SDS011;6349;50.904;6.136;2023-04-01T03:31:26;0.87;;;0.50;;
12567;SDS011;6349;50.904;6.136;2023-04-01T03:33:27;0.70;;;0.20;;
12567;SDS011;6349;50.904;6.136;2023-04-01T03:35:29;0.90;;;0.40;;
12567;SDS011;6349;50.904;6.136;2023-04-01T03:37:29;0.57;;;0.30;;
12567;SDS011;6349;50.904;6.136;2023-04-01T03:39:32;0.40;;;0.40;;
12567;SDS011;6349;50.904;6.136;2023-04-01T03:41:32;0.63;;;0.37;;
12567;SDS011;6349;50.904;6.136;2023-04-01T03:43:35;1.50;;;0.50;;
12567;SDS011;6349;50.904;6.136;2023-04-01T03:45:47;1.00;;;0.40;;
12567;SDS011;6349;50.904;6.136;2023-04-01T03:47:50;0.83;;;0.30;;
12567;SDS011;6349;50.904;6.136;2023-04-01T03:49:51;0.87;;;0.57;;
12567;SDS011;6349;50.904;6.136;2023-04-01T03:51:53;0.57;;;0.50;;
12567;SDS011;6349;50.904;6.136;2023-04-01T03:53:54;0.40;;;0.30;;
12567;SDS011;6349;50.904;6.136;2023-04-01T03:55:55;1.13;;;0.40;;
12567;SDS011;6349;50.904;6.136;2023-04-01T03:57:57;0.83;;;0.60;;
12567;SDS011;6349;50.904;6.136;2023-04-01T03:59:59;0.30;;;0.30;;
12567;SDS011;6349;50.904;6.136;2023-04-01T04:02:01;0.97;;;0.47;;
12567;SDS011;6349;50.904;6.136;2023-04-01T04:04:03;1.27;;;0.50;;
12567;SDS011;6349;50.904;6.136;2023-04-01T04:06:04;0.60;;;0.30;;
12567;SDS011;6349;50.904;6.136;2023-04-01T04:08:06;0.80;;;0.50;;
12567;SDS011;6349;50.904;6.136;2023-04-01T04:10:06;0.40;;;0.37;;
12567;SDS011;6349;50.904;6.136;2023-04-01T04:12:07;0.67;;;0.50;;
12567;SDS011;6349;50.904;6.136;2023-04-01T04:14:09;0.40;;;0.40;;
12567;SDS011;6349;50.904;6.136;2023-04-01T04:16:11;0.80;;;0.40;;
12567;SDS011;6349;50.904;6.136;2023-04-01T04:18:13;0.43;;;0.43;;
12567;SDS011;6349;50.904;6.136;2023-04-01T04:20:14;0.30;;;0.30;;
12567;SDS011;6349;50.904;6.136;2023-04-01T04:22:16;0.60;;;0.30;;
12567;SDS011;6349;50.904;6.136;2023-04-01T04:24:18;0.40;;;0.40;;
12567;SDS011;6349;50.904;6.136;2023-04-01T04:26:20;0.50;;;0.50;;
12567;SDS011;6349;50.904;6.136;2023-04-01T04:28:20;0.57;;;0.57;;
12567;SDS011;6349;50.904;6.136;2023-04-01T04:30:21;0.73;;;0.70;;
12567;SDS011;6349;50.904;6.136;2023-04-01T04:32:23;0.60;;;0.60;;
12567;SDS011;6349;50.904;6.136;2023-04-01T04:34:25;0.90;;;0.90;;
12567;SDS011;6349;50.904;6.136;2023-04-01T04:36:26;0.70;;;0.70;;
12567;SDS011;6349;50.904;6.136;2023-04-01T04:38:28;0.90;;;0.80;;
12567;SDS011;6349;50.904;6.136;2023-04-01T04:40:29;0.97;;;0.63;;
12567;SDS011;6349;50.904;6.136;2023-04-01T04:42:33;0.60;;;0.60;;
12567;SDS011;6349;50.904;6.136;2023-04-01T04:44:35;0.73;;;0.70;;
12567;SDS011;6349;50.904;6.136;2023-04-01T04:46:37;0.70;;;0.70;;
12567;SDS011;6349;50.904;6.136;2023-04-01T04:48:40;0.70;;;0.70;;
12567;SDS011;6349;50.904;6.136;2023-04-01T04:50:41;0.60;;;0.60;;
12567;SDS011;6349;50.904;6.136;2023-04-01T04:52:42;1.20;;;0.63;;
12567;SDS011;6349;50.904;6.136;2023-04-01T04:54:44;1.10;;;0.83;;
12567;SDS011;6349;50.904;6.136;2023-04-01T04:56:45;1.00;;;0.60;;
12567;SDS011;6349;50.904;6.136;2023-04-01T04:58:47;0.60;;;0.60;;
12567;SDS011;6349;50.904;6.136;2023-04-01T05:00:50;0.80;;;0.80;;
12567;SDS011;6349;50.904;6.136;2023-04-01T05:02:52;0.47;;;0.47;;
12567;SDS011;6349;50.904;6.136;2023-04-01T05:04:55;1.50;;;0.57;;
12567;SDS011;6349;50.904;6.136;2023-04-01T05:06:56;0.67;;;0.57;;
12567;SDS011;6349;50.904;6.136;2023-04-01T05:08:58;0.43;;;0.43;;
12567;SDS011;6349;50.904;6.136;2023-04-01T05:11:00;0.87;;;0.57;;
12567;SDS011;6349;50.904;6.136;2023-04-01T05:13:03;0.40;;;0.40;;
12567;SDS011;6349;50.904;6.136;2023-04-01T05:15:04;0.47;;;0.47;;
12567;SDS011;6349;50.904;6.136;2023-04-01T05:17:10;0.70;;;0.60;;
12567;SDS011;6349;50.904;6.136;2023-04-01T05:19:13;0.73;;;0.73;;
12567;SDS011;6349;50.904;6.136;2023-04-01T05:21:15;0.63;;;0.60;;
12567;SDS011;6349;50.904;6.136;2023-04-01T05:23:18;1.23;;;0.67;;
12567;SDS011;6349;50.904;6.136;2023-04-01T05:25:21;0.50;;;0.50;;
12567;SDS011;6349;50.904;6.136;2023-04-01T05:27:23;0.50;;;0.50;;
12567;SDS011;6349;50.904;6.136;2023-04-01T05:29:25;0.80;;;0.60;;
12567;SDS011;6349;50.904;6.136;2023-04-01T05:31:27;0.60;;;0.60;;
12567;SDS011;6349;50.904;6.136;2023-04-01T05:33:28;0.80;;;0.80;;
12567;SDS011;6349;50.904;6.136;2023-04-01T05:35:31;0.70;;;0.70;;
12567;SDS011;6349;50.904;6.136;2023-04-01T05:37:33;0.50;;;0.50;;
12567;SDS011;6349;50.904;6.136;2023-04-01T05:39:37;0.80;;;0.80;;
12567;SDS011;6349;50.904;6.136;2023-04-01T05:41:40;0.90;;;0.70;;
12567;SDS011;6349;50.904;6.136;2023-04-01T05:43:41;0.67;;;0.67;;
12567;SDS011;6349;50.904;6.136;2023-04-01T05:45:43;0.70;;;0.70;;
12567;SDS011;6349;50.904;6.136;2023-04-01T05:47:45;1.33;;;0.70;;
12567;SDS011;6349;50.904;6.136;2023-04-01T05:49:45;0.90;;;0.90;;
12567;SDS011;6349;50.904;6.136;2023-04-01T05:51:48;1.50;;;1.17;;
12567;SDS011;6349;50.904;6.136;2023-04-01T05:53:50;1.30;;;1.20;;
12567;SDS011;6349;50.904;6.136;2023-04-01T05:55:51;1.23;;;1.13;;
12567;SDS011;6349;50.904;6.136;2023-04-01T05:57:52;1.87;;;1.40;;
12567;SDS011;6349;50.904;6.136;2023-04-01T05:59:54;1.83;;;1.20;;
12567;SDS011;6349;50.904;6.136;2023-04-01T06:01:57;2.03;;;1.40;;
12567;SDS011;6349;50.904;6.136;2023-04-01T06:03:59;2.30;;;1.47;;
12567;SDS011;6349;50.904;6.136;2023-04-01T06:06:00;2.33;;;1.50;;
12567;SDS011;6349;50.904;6.136;2023-04-01T06:08:05;1.70;;;1.60;;
12567;SDS011;6349;50.904;6.136;2023-04-01T06:10:14;1.60;;;1.50;;
12567;SDS011;6349;50.904;6.136;2023-04-01T06:19:55;1.90;;;1.60;;
12567;SDS011;6349;50.904;6.136;2023-04-01T06:31:46;1.50;;;1.40;;
12567;SDS011;6349;50.904;6.136;2023-04-01T06:38:47;1.67;;;1.57;;
12567;SDS011;6349;50.904;6.136;2023-04-01T06:48:29;2.13;;;1.90;;
12567;SDS011;6349;50.904;6.136;2023-04-01T06:53:32;1.40;;;1.30;;
12567;SDS011;6349;50.904;6.136;2023-04-01T06:56:06;1.70;;;1.30;;
12567;SDS011;6349;50.904;6.136;2023-04-01T06:58:24;1.50;;;1.33;;
12567;SDS011;6349;50.904;6.136;2023-04-01T07:00:36;1.50;;;1.30;;
12567;SDS011;6349;50.904;6.136;2023-04-01T07:02:48;1.70;;;1.20;;
12567;SDS011;6349;50.904;6.136;2023-04-01T07:04:57;2.03;;;1.13;;
12567;SDS011;6349;50.904;6.136;2023-04-01T07:07:44;1.37;;;1.20;;
12567;SDS011;6349;50.904;6.136;2023-04-01T07:09:43;2.67;;;1.00;;
12567;SDS011;6349;50.904;6.136;2023-04-01T07:11:51;1.70;;;0.90;;
12567;SDS011;6349;50.904;6.136;2023-04-01T07:14:20;1.83;;;0.90;;
12567;SDS011;6349;50.904;6.136;2023-04-01T07:16:29;0.73;;;0.73;;
12567;SDS011;6349;50.904;6.136;2023-04-01T07:18:56;1.30;;;1.10;;
12567;SDS011;6349;50.904;6.136;2023-04-01T07:23:28;1.00;;;0.90;;
12567;SDS011;6349;50.904;6.136;2023-04-01T07:25:35;0.77;;;0.70;;
12567;SDS011;6349;50.904;6.136;2023-04-01T07:27:42;1.00;;;0.90;;
12567;SDS011;6349;50.904;6.136;2023-04-01T07:29:47;0.97;;;0.80;;
12567;SDS011;6349;50.904;6.136;2023-04-01T07:34:13;0.80;;;0.80;;
12567;SDS011;6349;50.904;6.136;2023-04-01T07:36:33;1.03;;;0.93;;
12567;SDS011;6349;50.904;6.136;2023-04-01T07:39:03;0.90;;;0.90;;
12567;SDS011;6349;50.904;6.136;2023-04-01T07:42:08;1.00;;;1.00;;
12567;SDS011;6349;50.904;6.136;2023-04-01T07:43:42;2.03;;;0.87;;
12567;SDS011;6349;50.904;6.136;2023-04-01T07:51:07;0.90;;;0.90;;
12567;SDS011;6349;50.904;6.136;2023-04-01T07:56:15;1.30;;;0.80;;
12567;SDS011;6349;50.904;6.136;2023-04-01T08:00:30;0.77;;;0.77;;
12567;SDS011;6349;50.904;6.136;2023-04-01T08:07:25;0.87;;;0.87;;
12567;SDS011;6349;50.904;6.136;2023-04-01T08:09:55;1.10;;;0.93;;
12567;SDS011;6349;50.904;6.136;2023-04-01T08:12:21;1.13;;;1.03;;
12567;SDS011;6349;50.904;6.136;2023-04-01T08:17:00;1.70;;;1.00;;
12567;SDS011;6349;50.904;6.136;2023-04-01T08:21:33;1.07;;;0.90;;
12567;SDS011;6349;50.904;6.136;2023-04-01T08:23:43;0.97;;;0.93;;
12567;SDS011;6349;50.904;6.136;2023-04-01T08:25:48;0.80;;;0.80;;
12567;SDS011;6349;50.904;6.136;2023-04-01T08:30:16;1.20;;;1.10;;
12567;SDS011;6349;50.904;6.136;2023-04-01T08:32:31;1.20;;;1.10;;
12567;SDS011;6349;50.904;6.136;2023-04-01T08:34:42;0.90;;;0.90;;
12567;SDS011;6349;50.904;6.136;2023-04-01T08:36:50;1.13;;;0.90;;
12567;SDS011;6349;50.904;6.136;2023-04-01T08:41:26;1.33;;;1.07;;
12567;SDS011;6349;50.904;6.136;2023-04-01T08:43:43;1.07;;;0.90;;
12567;SDS011;6349;50.904;6.136;2023-04-01T08:45:56;0.97;;;0.97;;
12567;SDS011;6349;50.904;6.136;2023-04-01T08:48:39;2.53;;;1.10;;
12567;SDS011;6349;50.904;6.136;2023-04-01T08:53:07;0.83;;;0.83;;
12567;SDS011;6349;50.904;6.136;2023-04-01T09:00:56;0.73;;;0.73;;
12567;SDS011;6349;50.904;6.136;2023-04-01T09:05:47;0.60;;;0.60;;
12567;SDS011;6349;50.904;6.136;2023-04-01T09:10:49;0.60;;;0.60;;
12567;SDS011;6349;50.904;6.136;2023-04-01T09:27:56;1.00;;;1.00;;
12567;SDS011;6349;50.904;6.136;2023-04-01T09:38:20;1.10;;;1.10;;
12567;SDS011;6349;50.904;6.136;2023-04-01T09:48:04;1.20;;;1.10;;
12567;SDS011;6349;50.904;6.136;2023-04-01T09:50:33;1.00;;;1.00;;
12567;SDS011;6349;50.904;6.136;2023-04-01T09:53:04;1.10;;;1.10;;
12567;SDS011;6349;50.904;6.136;2023-04-01T10:00:20;1.30;;;1.20;;
12567;SDS011;6349;50.904;6.136;2023-04-01T10:26:47;1.40;;;1.30;;
12567;SDS011;6349;50.904;6.136;2023-04-01T10:29:16;1.10;;;1.10;;
12567;SDS011;6349;50.904;6.136;2023-04-01T10:31:35;2.00;;;1.10;;
12567;SDS011;6349;50.904;6.136;2023-04-01T10:34:22;1.30;;;1.20;;
12567;SDS011;6349;50.904;6.136;2023-04-01T10:36:56;0.90;;;0.90;;
12567;SDS011;6349;50.904;6.136;2023-04-01T11:23:41;1.40;;;1.30;;
12567;SDS011;6349;50.904;6.136;2023-04-01T11:28:42;1.40;;;1.30;;
12567;SDS011;6349;50.904;6.136;2023-04-01T11:31:15;1.37;;;1.27;;
12567;SDS011;6349;50.904;6.136;2023-04-01T11:33:34;1.40;;;1.30;;
12567;SDS011;6349;50.904;6.136;2023-04-01T11:40:47;1.37;;;1.27;;
12567;SDS011;6349;50.904;6.136;2023-04-01T11:42:59;1.40;;;1.30;;
12567;SDS011;6349;50.904;6.136;2023-04-01T11:47:56;4.97;;;2.90;;
12567;SDS011;6349;50.904;6.136;2023-04-01T11:50:32;4.20;;;3.00;;
12567;SDS011;6349;50.904;6.136;2023-04-01T12:15:22;2.60;;;2.37;;
12567;SDS011;6349;50.904;6.136;2023-04-01T12:20:43;2.20;;;2.00;;
12567;SDS011;6349;50.904;6.136;2023-04-01T12:23:03;2.13;;;2.00;;
12567;SDS011;6349;50.904;6.136;2023-04-01T12:27:42;1.60;;;1.50;;
12567;SDS011;6349;50.904;6.136;2023-04-01T12:38:16;2.20;;;2.10;;
12567;SDS011;6349;50.904;6.136;2023-04-01T12:48:18;2.20;;;2.10;;
12567;SDS011;6349;50.904;6.136;2023-04-01T13:07:24;2.97;;;2.77;;
12567;SDS011;6349;50.904;6.136;2023-04-01T13:17:29;2.77;;;2.57;;
12567;SDS011;6349;50.904;6.136;2023-04-01T13:22:09;2.40;;;2.20;;
12567;SDS011;6349;50.904;6.136;2023-04-01T13:29:26;2.00;;;1.80;;
12567;SDS011;6349;50.904;6.136;2023-04-01T13:33:40;2.00;;;1.70;;
12567;SDS011;6349;50.904;6.136;2023-04-01T13:43:25;1.90;;;1.80;;
12567;SDS011;6349;50.904;6.136;2023-04-01T13:49:03;1.90;;;1.80;;
12567;SDS011;6349;50.904;6.136;2023-04-01T13:53:15;1.80;;;1.70;;
12567;SDS011;6349;50.904;6.136;2023-04-01T13:58:30;1.63;;;1.53;;
12567;SDS011;6349;50.904;6.136;2023-04-01T14:34:15;2.97;;;2.77;;
12567;SDS011;6349;50.904;6.136;2023-04-01T14:41:13;2.90;;;2.70;;
12567;SDS011;6349;50.904;6.136;2023-04-01T14:46:04;2.57;;;2.37;;
12567;SDS011;6349;50.904;6.136;2023-04-01T14:48:38;3.10;;;2.50;;
12567;SDS011;6349;50.904;6.136;2023-04-01T14:50:51;2.50;;;2.30;;
12567;SDS011;6349;50.904;6.136;2023-04-01T14:57:34;2.63;;;2.43;;
12567;SDS011;6349;50.904;6.136;2023-04-01T14:59:38;2.53;;;2.40;;
12567;SDS011;6349;50.904;6.136;2023-04-01T15:01:55;3.00;;;2.80;;
12567;SDS011;6349;50.904;6.136;2023-04-01T15:07:21;2.70;;;2.50;;
12567;SDS011;6349;50.904;6.136;2023-04-01T15:24:07;2.10;;;2.00;;
12567;SDS011;6349;50.904;6.136;2023-04-01T15:26:29;2.50;;;2.30;;
12567;SDS011;6349;50.904;6.136;2023-04-01T15:38:53;1.80;;;1.70;;
12567;SDS011;6349;50.904;6.136;2023-04-01T15:41:28;2.00;;;1.90;;
12567;SDS011;6349;50.904;6.136;2023-04-01T15:43:49;1.70;;;1.60;;
12567;SDS011;6349;50.904;6.136;2023-04-01T15:45:58;1.87;;;1.77;;
12567;SDS011;6349;50.904;6.136;2023-04-01T16:01:59;1.67;;;1.53;;
12567;SDS011;6349;50.904;6.136;2023-04-01T16:19:51;1.60;;;1.50;;
12567;SDS011;6349;50.904;6.136;2023-04-01T16:21:52;1.50;;;1.40;;
12567;SDS011;6349;50.904;6.136;2023-04-01T16:30:00;1.37;;;1.27;;
12567;SDS011;6349;50.904;6.136;2023-04-01T16:37:39;1.43;;;1.33;;
12567;SDS011;6349;50.904;6.136;2023-04-01T16:42:38;1.70;;;1.60;;
12567;SDS011;6349;50.904;6.136;2023-04-01T16:47:32;1.83;;;1.73;;
12567;SDS011;6349;50.904;6.136;2023-04-01T16:49:42;1.90;;;1.80;;
12567;SDS011;6349;50.904;6.136;2023-04-01T16:59:29;1.77;;;1.50;;
12567;SDS011;6349;50.904;6.136;2023-04-01T17:01:53;1.70;;;1.60;;
12567;SDS011;6349;50.904;6.136;2023-04-01T17:04:14;1.73;;;1.63;;
12567;SDS011;6349;50.904;6.136;2023-04-01T17:06:45;1.60;;;1.50;;
12567;SDS011;6349;50.904;6.136;2023-04-01T17:11:19;1.73;;;1.63;;
12567;SDS011;6349;50.904;6.136;2023-04-01T17:16:01;2.10;;;1.90;;
12567;SDS011;6349;50.904;6.136;2023-04-01T17:22:44;2.40;;;1.70;;
12567;SDS011;6349;50.904;6.136;2023-04-01T17:33:03;1.90;;;1.80;;
12567;SDS011;6349;50.904;6.136;2023-04-01T17:35:35;1.70;;;1.60;;
12567;SDS011;6349;50.904;6.136;2023-04-01T17:47:49;1.70;;;1.60;;
12567;SDS011;6349;50.904;6.136;2023-04-01T17:50:30;1.63;;;1.53;;
12567;SDS011;6349;50.904;6.136;2023-04-01T17:58:04;2.07;;;1.97;;
12567;SDS011;6349;50.904;6.136;2023-04-01T18:02:21;2.23;;;2.10;;
12567;SDS011;6349;50.904;6.136;2023-04-01T18:05:20;1.83;;;1.73;;
12567;SDS011;6349;50.904;6.136;2023-04-01T18:09:37;2.00;;;1.90;;
12567;SDS011;6349;50.904;6.136;2023-04-01T18:12:18;2.37;;;2.17;;
12567;SDS011;6349;50.904;6.136;2023-04-01T18:20:08;2.40;;;2.20;;
12567;SDS011;6349;50.904;6.136;2023-04-01T18:29:51;3.00;;;2.80;;
12567;SDS011;6349;50.904;6.136;2023-04-01T18:34:19;2.70;;;2.50;;
12567;SDS011;6349;50.904;6.136;2023-04-01T18:36:54;2.73;;;2.53;;
12567;SDS011;6349;50.904;6.136;2023-04-01T18:39:07;2.63;;;2.43;;
12567;SDS011;6349;50.904;6.136;2023-04-01T18:44:38;3.07;;;2.87;;
12567;SDS011;6349;50.904;6.136;2023-04-01T18:51:59;3.20;;;2.97;;
12567;SDS011;6349;50.904;6.136;2023-04-01T18:57:15;3.60;;;3.30;;
12567;SDS011;6349;50.904;6.136;2023-04-01T19:02:02;3.37;;;3.17;;
12567;SDS011;6349;50.904;6.136;2023-04-01T19:06:51;3.27;;;2.97;;
12567;SDS011;6349;50.904;6.136;2023-04-01T19:09:21;2.93;;;2.70;;
12567;SDS011;6349;50.904;6.136;2023-04-01T19:11:37;3.07;;;2.87;;
12567;SDS011;6349;50.904;6.136;2023-04-01T19:14:12;2.80;;;2.60;;
12567;SDS011;6349;50.904;6.136;2023-04-01T19:16:46;3.10;;;2.40;;
12567;SDS011;6349;50.904;6.136;2023-04-01T19:21:44;2.20;;;2.10;;
12567;SDS011;6349;50.904;6.136;2023-04-01T19:29:35;2.60;;;2.40;;
12567;SDS011;6349;50.904;6.136;2023-04-01T19:36:40;2.10;;;2.00;;
12567;SDS011;6349;50.904;6.136;2023-04-01T19:38:53;2.40;;;2.20;;
12567;SDS011;6349;50.904;6.136;2023-04-01T19:53:28;1.73;;;1.63;;
12567;SDS011;6349;50.904;6.136;2023-04-01T19:58:27;1.60;;;1.50;;
12567;SDS011;6349;50.904;6.136;2023-04-01T20:00:50;2.30;;;1.67;;
12567;SDS011;6349;50.904;6.136;2023-04-01T20:03:04;1.60;;;1.50;;
12567;SDS011;6349;50.904;6.136;2023-04-01T20:15:39;2.10;;;2.00;;
12567;SDS011;6349;50.904;6.136;2023-04-01T20:17:44;1.83;;;1.73;;
12567;SDS011;6349;50.904;6.136;2023-04-01T20:24:45;1.80;;;1.70;;
12567;SDS011;6349;50.904;6.136;2023-04-01T20:26:59;2.13;;;1.90;;
12567;SDS011;6349;50.904;6.136;2023-04-01T20:31:54;2.10;;;2.00;;
12567;SDS011;6349;50.904;6.136;2023-04-01T20:47:03;3.27;;;2.97;;
12567;SDS011;6349;50.904;6.136;2023-04-01T21:00:52;3.70;;;3.40;;
12567;SDS011;6349;50.904;6.136;2023-04-01T21:05:25;4.00;;;3.70;;
12567;SDS011;6349;50.904;6.136;2023-04-01T21:34:41;2.93;;;2.73;;
12567;SDS011;6349;50.904;6.136;2023-04-01T21:36:58;3.00;;;2.27;;
12567;SDS011;6349;50.904;6.136;2023-04-01T21:44:01;2.90;;;2.70;;
12567;SDS011;6349;50.904;6.136;2023-04-01T21:54:22;3.23;;;3.00;;
12567;SDS011;6349;50.904;6.136;2023-04-01T22:06:40;2.80;;;2.60;;
12567;SDS011;6349;50.904;6.136;2023-04-01T22:13:46;2.40;;;2.30;;
12567;SDS011;6349;50.904;6.136;2023-04-01T22:16:59;2.27;;;2.17;;
12567;SDS011;6349;50.904;6.136;2023-04-01T22:23:26;2.10;;;2.00;;
12567;SDS011;6349;50.904;6.136;2023-04-01T22:25:38;2.23;;;2.13;;
12567;SDS011;6349;50.904;6.136;2023-04-01T22:30:19;2.23;;;2.10;;
12567;SDS011;6349;50.904;6.136;2023-04-01T22:34:42;2.97;;;2.77;;
12567;SDS011;6349;50.904;6.136;2023-04-01T22:37:02;3.50;;;3.23;;
12567;SDS011;6349;50.904;6.136;2023-04-01T22:39:24;4.20;;;3.20;;
12567;SDS011;6349;50.904;6.136;2023-04-01T22:42:01;4.17;;;3.87;;
12567;SDS011;6349;50.904;6.136;2023-04-01T22:44:15;4.23;;;3.93;;
12567;SDS011;6349;50.904;6.136;2023-04-01T22:48:54;5.10;;;4.67;;
12567;SDS011;6349;50.904;6.136;2023-04-01T22:51:13;5.40;;;5.00;;
12567;SDS011;6349;50.904;6.136;2023-04-01T22:53:23;6.53;;;5.93;;
12567;SDS011;6349;50.904;6.136;2023-04-01T22:55:29;7.30;;;6.47;;
12567;SDS011;6349;50.904;6.136;2023-04-01T22:59:51;6.90;;;6.30;;
12567;SDS011;6349;50.904;6.136;2023-04-01T23:02:42;6.40;;;5.80;;
12567;SDS011;6349;50.904;6.136;2023-04-01T23:04:31;6.30;;;5.70;;
12567;SDS011;6349;50.904;6.136;2023-04-01T23:06:35;6.40;;;5.80;;
12567;SDS011;6349;50.904;6.136;2023-04-01T23:08:54;5.33;;;4.90;;
12567;SDS011;6349;50.904;6.136;2023-04-01T23:11:06;5.10;;;4.67;;
12567;SDS011;6349;50.904;6.136;2023-04-01T23:13:20;4.93;;;4.53;;
12567;SDS011;6349;50.904;6.136;2023-04-01T23:15:27;4.67;;;4.27;;
12567;SDS011;6349;50.904;6.136;2023-04-01T23:22:13;3.80;;;3.53;;
12567;SDS011;6349;50.904;6.136;2023-04-01T23:24:48;3.80;;;3.50;;
12567;SDS011;6349;50.904;6.136;2023-04-01T23:26:55;3.60;;;3.30;;
12567;SDS011;6349;50.904;6.136;2023-04-01T23:29:03;3.30;;;3.10;;
12567;SDS011;6349;50.904;6.136;2023-04-01T23:33:40;3.27;;;2.97;;
12567;SDS011;6349;50.904;6.136;2023-04-01T23:35:47;3.40;;;3.20;;
12567;SDS011;6349;50.904;6.136;2023-04-01T23:37:51;3.00;;;2.80;;
12567;SDS011;6349;50.904;6.136;2023-04-01T23:39:52;2.80;;;2.60;;
12567;SDS011;6349;50.904;6.136;2023-04-01T23:41:56;3.60;;;2.70;;
12567;SDS011;6349;50.904;6.136;2023-04-01T23:44:23;3.00;;;2.80;;
12567;SDS011;6349;50.904;6.136;2023-04-01T23:46:26;2.70;;;2.50;;
12567;SDS011;6349;50.904;6.136;2023-04-01T23:48:40;2.50;;;2.30;;
12567;SDS011;6349;50.904;6.136;2023-04-01T23:50:44;2.83;;;2.63;;
12567;SDS011;6349;50.904;6.136;2023-04-01T23:52:58;2.60;;;2.40;;
12567;SDS011;6349;50.904;6.136;2023-04-01T23:57:32;2.83;;;2.63;;
12567;SDS011;6349;50.904;6.136;2023-04-01T23:59:35;3.30;;;3.10;;
